sensor_id;sensor_type;location;lat;lon;timestamp;P1;durP1;ratioP1;P2;durP2;ratioP2
1533;SDS011;760;48.822;9.304;2022-10-13T04:04:29;10.52;;;7.68;;
1533;SDS011;760;48.822;9.304;2022-10-13T04:06:54;8.73;;;7.83;;
1533;SDS011;760;48.822;9.304;2022-10-13T04:09:20;12.23;;;8.53;;
1533;SDS011;760;48.822;9.304;2022-10-13T04:11:48;12.10;;;7.87;;
1533;SDS011;760;48.822;9.304;2022-10-13T04:14:15;12.37;;;8.37;;
1533;SDS011;760;48.822;9.304;2022-10-13T04:16:40;13.00;;;8.00;;
1533;SDS011;760;48.822;9.304;2022-10-13T04:19:06;9.17;;;7.90;;
1533;SDS011;760;48.822;9.304;2022-10-13T04:21:32;10.50;;;6.40;;
1533;SDS011;760;48.822;9.304;2022-10-13T04:23:59;11.73;;;7.00;;
1533;SDS011;760;48.822;9.304;2022-10-13T04:26:26;9.80;;;8.80;;
1533;SDS011;760;48.822;9.304;2022-10-13T04:28:53;7.78;;;6.80;;
1533;SDS011;760;48.822;9.304;2022-10-13T04:31:21;11.07;;;7.00;;
1533;SDS011;760;48.822;9.304;2022-10-13T04:33:48;11.10;;;8.57;;
1533;SDS011;760;48.822;9.304;2022-10-13T04:36:14;8.27;;;6.80;;
1533;SDS011;760;48.822;9.304;2022-10-13T04:38:41;9.23;;;5.93;;
1533;SDS011;760;48.822;9.304;2022-10-13T04:41:08;8.10;;;6.97;;
1533;SDS011;760;48.822;9.304;2022-10-13T04:43:34;9.20;;;7.40;;
1533;SDS011;760;48.822;9.304;2022-10-13T04:46:00;10.40;;;6.80;;
1533;SDS011;760;48.822;9.304;2022-10-13T04:48:27;10.50;;;7.40;;
1533;SDS011;760;48.822;9.304;2022-10-13T04:51:06;9.10;;;7.03;;
1533;SDS011;760;48.822;9.304;2022-10-13T04:53:34;9.20;;;6.57;;
1533;SDS011;760;48.822;9.304;2022-10-13T04:56:04;8.80;;;6.80;;
1533;SDS011;760;48.822;9.304;2022-10-13T04:58:32;12.50;;;7.50;;
1533;SDS011;760;48.822;9.304;2022-10-13T05:00:58;10.00;;;6.75;;
1533;SDS011;760;48.822;9.304;2022-10-13T05:03:24;8.40;;;6.60;;
1533;SDS011;760;48.822;9.304;2022-10-13T05:05:50;9.80;;;7.27;;
1533;SDS011;760;48.822;9.304;2022-10-13T05:08:16;8.13;;;6.23;;
1533;SDS011;760;48.822;9.304;2022-10-13T05:10:41;9.63;;;7.03;;
1533;SDS011;760;48.822;9.304;2022-10-13T05:13:07;10.53;;;7.43;;
1533;SDS011;760;48.822;9.304;2022-10-13T05:15:32;13.57;;;8.27;;
1533;SDS011;760;48.822;9.304;2022-10-13T05:17:58;10.40;;;7.53;;
1533;SDS011;760;48.822;9.304;2022-10-13T05:20:24;11.00;;;8.00;;
1533;SDS011;760;48.822;9.304;2022-10-13T05:22:51;9.20;;;6.82;;
1533;SDS011;760;48.822;9.304;2022-10-13T05:25:16;7.87;;;6.90;;
1533;SDS011;760;48.822;9.304;2022-10-13T05:27:42;9.53;;;8.13;;
1533;SDS011;760;48.822;9.304;2022-10-13T05:30:10;9.23;;;7.15;;
1533;SDS011;760;48.822;9.304;2022-10-13T05:32:36;9.37;;;6.60;;
1533;SDS011;760;48.822;9.304;2022-10-13T05:35:01;9.23;;;6.23;;
1533;SDS011;760;48.822;9.304;2022-10-13T05:37:27;11.43;;;7.80;;
1533;SDS011;760;48.822;9.304;2022-10-13T05:39:53;13.13;;;6.80;;
1533;SDS011;760;48.822;9.304;2022-10-13T05:42:18;9.37;;;7.27;;
1533;SDS011;760;48.822;9.304;2022-10-13T05:44:44;11.70;;;7.57;;
1533;SDS011;760;48.822;9.304;2022-10-13T05:47:09;9.03;;;7.43;;
1533;SDS011;760;48.822;9.304;2022-10-13T05:49:35;12.27;;;7.60;;
1533;SDS011;760;48.822;9.304;2022-10-13T05:52:03;11.02;;;6.85;;
1533;SDS011;760;48.822;9.304;2022-10-13T05:54:33;12.43;;;7.30;;
1533;SDS011;760;48.822;9.304;2022-10-13T05:57:09;13.93;;;8.40;;
1533;SDS011;760;48.822;9.304;2022-10-13T05:59:40;12.23;;;7.63;;
1533;SDS011;760;48.822;9.304;2022-10-13T06:02:10;9.00;;;7.77;;
1533;SDS011;760;48.822;9.304;2022-10-13T06:04:39;14.20;;;7.87;;
1533;SDS011;760;48.822;9.304;2022-10-13T06:07:11;16.83;;;8.07;;
1533;SDS011;760;48.822;9.304;2022-10-13T06:09:37;12.67;;;7.07;;
1533;SDS011;760;48.822;9.304;2022-10-13T06:12:04;12.87;;;8.80;;
1533;SDS011;760;48.822;9.304;2022-10-13T06:14:31;16.80;;;8.20;;
1533;SDS011;760;48.822;9.304;2022-10-13T06:16:57;15.10;;;9.57;;
1533;SDS011;760;48.822;9.304;2022-10-13T06:19:23;9.73;;;7.77;;
1533;SDS011;760;48.822;9.304;2022-10-13T06:21:48;10.73;;;8.30;;
1533;SDS011;760;48.822;9.304;2022-10-13T06:24:14;13.63;;;8.90;;
1533;SDS011;760;48.822;9.304;2022-10-13T06:26:39;12.30;;;8.03;;
1533;SDS011;760;48.822;9.304;2022-10-13T06:29:05;10.20;;;8.07;;
1533;SDS011;760;48.822;9.304;2022-10-13T06:31:31;10.20;;;7.43;;
1533;SDS011;760;48.822;9.304;2022-10-13T06:33:57;11.27;;;8.20;;
1533;SDS011;760;48.822;9.304;2022-10-13T06:36:23;9.50;;;7.27;;
1533;SDS011;760;48.822;9.304;2022-10-13T06:38:49;9.23;;;5.70;;
1533;SDS011;760;48.822;9.304;2022-10-13T06:41:14;15.20;;;9.27;;
1533;SDS011;760;48.822;9.304;2022-10-13T06:43:40;7.80;;;6.57;;
1533;SDS011;760;48.822;9.304;2022-10-13T06:46:06;9.57;;;6.30;;
1533;SDS011;760;48.822;9.304;2022-10-13T06:48:32;11.00;;;7.90;;
1533;SDS011;760;48.822;9.304;2022-10-13T06:51:05;11.20;;;7.33;;
1533;SDS011;760;48.822;9.304;2022-10-13T06:53:33;11.93;;;6.93;;
1533;SDS011;760;48.822;9.304;2022-10-13T06:55:59;8.23;;;6.87;;
1533;SDS011;760;48.822;9.304;2022-10-13T06:58:26;10.57;;;7.00;;
1533;SDS011;760;48.822;9.304;2022-10-13T07:00:52;15.23;;;8.07;;
1533;SDS011;760;48.822;9.304;2022-10-13T07:03:18;13.83;;;8.47;;
1533;SDS011;760;48.822;9.304;2022-10-13T07:05:44;11.20;;;7.53;;
1533;SDS011;760;48.822;9.304;2022-10-13T07:08:09;11.63;;;8.07;;
1533;SDS011;760;48.822;9.304;2022-10-13T07:10:38;11.47;;;6.80;;
1533;SDS011;760;48.822;9.304;2022-10-13T07:13:05;9.27;;;6.60;;
1533;SDS011;760;48.822;9.304;2022-10-13T07:15:30;10.83;;;7.60;;
1533;SDS011;760;48.822;9.304;2022-10-13T07:17:58;6.93;;;5.67;;
1533;SDS011;760;48.822;9.304;2022-10-13T07:20:23;17.07;;;8.17;;
1533;SDS011;760;48.822;9.304;2022-10-13T07:22:52;14.93;;;6.60;;
1533;SDS011;760;48.822;9.304;2022-10-13T07:25:20;13.10;;;7.77;;
1533;SDS011;760;48.822;9.304;2022-10-13T07:27:45;11.73;;;6.60;;
1533;SDS011;760;48.822;9.304;2022-10-13T07:30:11;8.00;;;5.20;;
1533;SDS011;760;48.822;9.304;2022-10-13T07:32:37;9.30;;;6.23;;
1533;SDS011;760;48.822;9.304;2022-10-13T07:35:03;7.13;;;6.10;;
1533;SDS011;760;48.822;9.304;2022-10-13T07:37:29;12.33;;;6.80;;
1533;SDS011;760;48.822;9.304;2022-10-13T07:39:55;7.90;;;5.77;;
1533;SDS011;760;48.822;9.304;2022-10-13T07:42:22;8.17;;;6.77;;
1533;SDS011;760;48.822;9.304;2022-10-13T07:44:58;8.93;;;5.50;;
1533;SDS011;760;48.822;9.304;2022-10-13T07:47:25;8.80;;;5.60;;
1533;SDS011;760;48.822;9.304;2022-10-13T07:49:50;7.47;;;5.83;;
1533;SDS011;760;48.822;9.304;2022-10-13T07:52:18;9.40;;;6.07;;
1533;SDS011;760;48.822;9.304;2022-10-13T07:54:44;12.03;;;6.13;;
1533;SDS011;760;48.822;9.304;2022-10-13T07:57:09;7.50;;;5.80;;
1533;SDS011;760;48.822;9.304;2022-10-13T07:59:35;10.50;;;5.77;;
1533;SDS011;760;48.822;9.304;2022-10-13T08:02:01;8.27;;;6.87;;
1533;SDS011;760;48.822;9.304;2022-10-13T08:04:30;9.73;;;5.03;;
1533;SDS011;760;48.822;9.304;2022-10-13T08:07:00;10.43;;;5.83;;
1533;SDS011;760;48.822;9.304;2022-10-13T08:09:26;6.50;;;5.03;;
1533;SDS011;760;48.822;9.304;2022-10-13T08:11:52;8.90;;;5.70;;
1533;SDS011;760;48.822;9.304;2022-10-13T08:14:18;6.13;;;4.57;;
1533;SDS011;760;48.822;9.304;2022-10-13T08:16:45;7.87;;;5.97;;
1533;SDS011;760;48.822;9.304;2022-10-13T08:19:11;6.80;;;4.40;;
1533;SDS011;760;48.822;9.304;2022-10-13T08:21:38;6.80;;;3.73;;
1533;SDS011;760;48.822;9.304;2022-10-13T08:24:08;5.43;;;3.80;;
1533;SDS011;760;48.822;9.304;2022-10-13T08:26:36;5.17;;;4.30;;
1533;SDS011;760;48.822;9.304;2022-10-13T08:29:02;7.20;;;4.20;;
1533;SDS011;760;48.822;9.304;2022-10-13T08:31:28;4.00;;;3.60;;
1533;SDS011;760;48.822;9.304;2022-10-13T08:33:54;3.87;;;3.50;;
1533;SDS011;760;48.822;9.304;2022-10-13T08:36:20;3.57;;;3.27;;
1533;SDS011;760;48.822;9.304;2022-10-13T08:38:45;5.60;;;4.20;;
1533;SDS011;760;48.822;9.304;2022-10-13T08:41:16;4.90;;;4.40;;
1533;SDS011;760;48.822;9.304;2022-10-13T08:43:47;7.10;;;5.13;;
1533;SDS011;760;48.822;9.304;2022-10-13T08:46:27;10.50;;;4.53;;
1533;SDS011;760;48.822;9.304;2022-10-13T08:48:57;4.80;;;4.20;;
1533;SDS011;760;48.822;9.304;2022-10-13T08:51:25;5.97;;;4.33;;
1533;SDS011;760;48.822;9.304;2022-10-13T08:53:54;7.03;;;5.00;;
1533;SDS011;760;48.822;9.304;2022-10-13T08:56:26;4.43;;;4.03;;
1533;SDS011;760;48.822;9.304;2022-10-13T08:58:55;8.50;;;4.90;;
1533;SDS011;760;48.822;9.304;2022-10-13T09:03:59;4.00;;;3.60;;
1533;SDS011;760;48.822;9.304;2022-10-13T09:06:47;4.90;;;4.03;;
1533;SDS011;760;48.822;9.304;2022-10-13T09:09:18;4.97;;;3.70;;
1533;SDS011;760;48.822;9.304;2022-10-13T09:11:45;3.40;;;3.10;;
1533;SDS011;760;48.822;9.304;2022-10-13T09:14:23;4.37;;;3.97;;
1533;SDS011;760;48.822;9.304;2022-10-13T09:16:55;5.13;;;3.33;;
1533;SDS011;760;48.822;9.304;2022-10-13T09:19:35;5.93;;;3.80;;
1533;SDS011;760;48.822;9.304;2022-10-13T09:27:52;4.67;;;4.20;;
1533;SDS011;760;48.822;9.304;2022-10-13T09:33:19;3.37;;;3.07;;
1533;SDS011;760;48.822;9.304;2022-10-13T09:38:24;6.83;;;3.57;;
1533;SDS011;760;48.822;9.304;2022-10-13T09:43:31;5.00;;;3.40;;
1533;SDS011;760;48.822;9.304;2022-10-13T09:45:57;6.13;;;4.13;;
1533;SDS011;760;48.822;9.304;2022-10-13T09:48:26;5.40;;;4.23;;
1533;SDS011;760;48.822;9.304;2022-10-13T09:50:55;5.30;;;4.57;;
1533;SDS011;760;48.822;9.304;2022-10-13T10:01:28;4.47;;;4.00;;
1533;SDS011;760;48.822;9.304;2022-10-13T10:04:00;4.53;;;3.93;;
1533;SDS011;760;48.822;9.304;2022-10-13T10:06:47;11.10;;;3.77;;
1533;SDS011;760;48.822;9.304;2022-10-13T10:12:00;6.27;;;4.30;;
1533;SDS011;760;48.822;9.304;2022-10-13T10:14:30;5.40;;;3.97;;
1533;SDS011;760;48.822;9.304;2022-10-13T10:19:47;5.97;;;4.20;;
1533;SDS011;760;48.822;9.304;2022-10-13T10:22:44;5.70;;;3.70;;
1533;SDS011;760;48.822;9.304;2022-10-13T10:25:37;4.97;;;4.13;;
1533;SDS011;760;48.822;9.304;2022-10-13T10:30:32;4.17;;;3.77;;
1533;SDS011;760;48.822;9.304;2022-10-13T10:33:12;4.40;;;3.63;;
1533;SDS011;760;48.822;9.304;2022-10-13T10:35:56;5.53;;;4.37;;
1533;SDS011;760;48.822;9.304;2022-10-13T10:38:51;4.10;;;3.73;;
1533;SDS011;760;48.822;9.304;2022-10-13T10:44:13;4.10;;;3.73;;
1533;SDS011;760;48.822;9.304;2022-10-13T10:46:47;4.63;;;3.80;;
1533;SDS011;760;48.822;9.304;2022-10-13T10:51:47;3.80;;;3.40;;
1533;SDS011;760;48.822;9.304;2022-10-13T10:57:16;5.50;;;3.67;;
1533;SDS011;760;48.822;9.304;2022-10-13T11:00:25;6.00;;;4.20;;
1533;SDS011;760;48.822;9.304;2022-10-13T11:02:41;7.17;;;3.57;;
1533;SDS011;760;48.822;9.304;2022-10-13T11:05:22;4.50;;;3.90;;
1533;SDS011;760;48.822;9.304;2022-10-13T11:10:17;4.83;;;4.07;;
1533;SDS011;760;48.822;9.304;2022-10-13T11:15:23;4.27;;;3.87;;
1533;SDS011;760;48.822;9.304;2022-10-13T11:17:50;4.93;;;3.67;;
1533;SDS011;760;48.822;9.304;2022-10-13T11:30:52;5.70;;;4.20;;
1533;SDS011;760;48.822;9.304;2022-10-13T11:41:42;5.80;;;3.20;;
1533;SDS011;760;48.822;9.304;2022-10-13T11:44:53;3.53;;;3.23;;
1533;SDS011;760;48.822;9.304;2022-10-13T11:55:42;3.80;;;3.40;;
1533;SDS011;760;48.822;9.304;2022-10-13T11:58:29;6.60;;;3.27;;
1533;SDS011;760;48.822;9.304;2022-10-13T12:01:02;4.27;;;3.80;;
1533;SDS011;760;48.822;9.304;2022-10-13T12:06:02;6.27;;;4.43;;
1533;SDS011;760;48.822;9.304;2022-10-13T12:08:43;6.07;;;3.80;;
1533;SDS011;760;48.822;9.304;2022-10-13T12:11:35;5.30;;;3.30;;
1533;SDS011;760;48.822;9.304;2022-10-13T12:14:02;6.83;;;2.77;;
1533;SDS011;760;48.822;9.304;2022-10-13T12:16:29;3.30;;;2.90;;
1533;SDS011;760;48.822;9.304;2022-10-13T12:19:08;4.50;;;3.63;;
1533;SDS011;760;48.822;9.304;2022-10-13T12:21:47;4.63;;;4.23;;
1533;SDS011;760;48.822;9.304;2022-10-13T12:24:14;5.20;;;3.57;;
1533;SDS011;760;48.822;9.304;2022-10-13T12:26:40;3.80;;;3.50;;
1533;SDS011;760;48.822;9.304;2022-10-13T12:29:09;3.13;;;2.70;;
1533;SDS011;760;48.822;9.304;2022-10-13T12:31:38;4.87;;;3.70;;
1533;SDS011;760;48.822;9.304;2022-10-13T12:34:16;12.80;;;3.67;;
1533;SDS011;760;48.822;9.304;2022-10-13T12:39:24;4.23;;;3.30;;
1533;SDS011;760;48.822;9.304;2022-10-13T12:41:52;3.37;;;3.07;;
1533;SDS011;760;48.822;9.304;2022-10-13T12:44:26;4.37;;;2.97;;
1533;SDS011;760;48.822;9.304;2022-10-13T12:46:56;6.30;;;3.50;;
1533;SDS011;760;48.822;9.304;2022-10-13T12:51:55;5.73;;;3.60;;
1533;SDS011;760;48.822;9.304;2022-10-13T12:54:28;5.53;;;3.10;;
1533;SDS011;760;48.822;9.304;2022-10-13T12:56:57;4.20;;;3.40;;
1533;SDS011;760;48.822;9.304;2022-10-13T12:59:26;8.53;;;3.33;;
1533;SDS011;760;48.822;9.304;2022-10-13T13:02:00;4.40;;;2.97;;
1533;SDS011;760;48.822;9.304;2022-10-13T13:09:23;4.10;;;3.33;;
1533;SDS011;760;48.822;9.304;2022-10-13T13:14:40;6.47;;;3.20;;
1533;SDS011;760;48.822;9.304;2022-10-13T13:19:45;5.73;;;3.93;;
1533;SDS011;760;48.822;9.304;2022-10-13T13:22:12;4.00;;;3.60;;
1533;SDS011;760;48.822;9.304;2022-10-13T13:24:39;4.77;;;4.17;;
1533;SDS011;760;48.822;9.304;2022-10-13T13:29:48;4.17;;;3.60;;
1533;SDS011;760;48.822;9.304;2022-10-13T13:32:15;3.57;;;3.23;;
1533;SDS011;760;48.822;9.304;2022-10-13T13:34:42;5.80;;;3.07;;
1533;SDS011;760;48.822;9.304;2022-10-13T13:37:11;4.33;;;3.77;;
1533;SDS011;760;48.822;9.304;2022-10-13T13:39:40;3.90;;;3.50;;
1533;SDS011;760;48.822;9.304;2022-10-13T13:42:07;6.43;;;3.50;;
1533;SDS011;760;48.822;9.304;2022-10-13T13:44:36;3.70;;;3.30;;
1533;SDS011;760;48.822;9.304;2022-10-13T13:47:02;4.13;;;3.50;;
1533;SDS011;760;48.822;9.304;2022-10-13T13:49:27;4.17;;;3.67;;
1533;SDS011;760;48.822;9.304;2022-10-13T13:51:53;4.20;;;3.00;;
1533;SDS011;760;48.822;9.304;2022-10-13T13:54:19;4.90;;;2.90;;
1533;SDS011;760;48.822;9.304;2022-10-13T13:56:44;4.20;;;3.20;;
1533;SDS011;760;48.822;9.304;2022-10-13T13:59:10;4.17;;;3.47;;
1533;SDS011;760;48.822;9.304;2022-10-13T14:01:36;4.50;;;3.70;;
1533;SDS011;760;48.822;9.304;2022-10-13T14:04:01;3.03;;;2.83;;
1533;SDS011;760;48.822;9.304;2022-10-13T14:06:27;4.07;;;3.23;;
1533;SDS011;760;48.822;9.304;2022-10-13T14:08:52;3.23;;;2.87;;
1533;SDS011;760;48.822;9.304;2022-10-13T14:11:18;5.53;;;3.77;;
1533;SDS011;760;48.822;9.304;2022-10-13T14:13:44;8.93;;;3.67;;
1533;SDS011;760;48.822;9.304;2022-10-13T14:16:10;4.07;;;3.67;;
1533;SDS011;760;48.822;9.304;2022-10-13T14:18:40;3.00;;;2.80;;
1533;SDS011;760;48.822;9.304;2022-10-13T14:21:06;4.73;;;4.20;;
1533;SDS011;760;48.822;9.304;2022-10-13T14:23:32;4.60;;;3.47;;
1533;SDS011;760;48.822;9.304;2022-10-13T14:25:57;4.70;;;3.90;;
1533;SDS011;760;48.822;9.304;2022-10-13T14:28:23;3.53;;;2.80;;
1533;SDS011;760;48.822;9.304;2022-10-13T14:30:48;5.80;;;3.53;;
1533;SDS011;760;48.822;9.304;2022-10-13T14:33:14;6.03;;;3.70;;
1533;SDS011;760;48.822;9.304;2022-10-13T14:35:43;5.63;;;3.80;;
1533;SDS011;760;48.822;9.304;2022-10-13T14:38:09;3.80;;;3.37;;
1533;SDS011;760;48.822;9.304;2022-10-13T14:40:38;4.07;;;3.50;;
1533;SDS011;760;48.822;9.304;2022-10-13T14:43:05;3.93;;;3.57;;
1533;SDS011;760;48.822;9.304;2022-10-13T14:45:30;7.10;;;3.40;;
1533;SDS011;760;48.822;9.304;2022-10-13T14:47:56;6.00;;;3.70;;
1533;SDS011;760;48.822;9.304;2022-10-13T14:50:21;5.13;;;3.50;;
1533;SDS011;760;48.822;9.304;2022-10-13T14:52:47;4.63;;;3.50;;
1533;SDS011;760;48.822;9.304;2022-10-13T14:55:13;5.90;;;3.53;;
1533;SDS011;760;48.822;9.304;2022-10-13T14:57:38;4.90;;;4.40;;
1533;SDS011;760;48.822;9.304;2022-10-13T15:00:05;5.57;;;4.10;;
1533;SDS011;760;48.822;9.304;2022-10-13T15:02:30;4.90;;;4.40;;
1533;SDS011;760;48.822;9.304;2022-10-13T15:04:56;3.77;;;3.40;;
1533;SDS011;760;48.822;9.304;2022-10-13T15:07:22;3.70;;;3.40;;
1533;SDS011;760;48.822;9.304;2022-10-13T15:09:47;5.87;;;4.63;;
1533;SDS011;760;48.822;9.304;2022-10-13T15:12:13;5.03;;;4.20;;
1533;SDS011;760;48.822;9.304;2022-10-13T15:14:38;6.20;;;4.57;;
1533;SDS011;760;48.822;9.304;2022-10-13T15:17:09;8.37;;;6.30;;
1533;SDS011;760;48.822;9.304;2022-10-13T15:19:36;9.00;;;5.63;;
1533;SDS011;760;48.822;9.304;2022-10-13T15:22:02;10.70;;;5.00;;
1533;SDS011;760;48.822;9.304;2022-10-13T15:24:27;6.83;;;4.90;;
1533;SDS011;760;48.822;9.304;2022-10-13T15:26:53;9.10;;;4.70;;
1533;SDS011;760;48.822;9.304;2022-10-13T15:29:18;7.23;;;5.27;;
1533;SDS011;760;48.822;9.304;2022-10-13T15:31:44;4.73;;;4.13;;
1533;SDS011;760;48.822;9.304;2022-10-13T15:34:10;7.57;;;4.90;;
1533;SDS011;760;48.822;9.304;2022-10-13T15:36:35;6.83;;;5.47;;
1533;SDS011;760;48.822;9.304;2022-10-13T15:39:01;8.33;;;5.03;;
1533;SDS011;760;48.822;9.304;2022-10-13T15:41:27;8.20;;;6.40;;
1533;SDS011;760;48.822;9.304;2022-10-13T15:43:52;9.00;;;5.13;;
1533;SDS011;760;48.822;9.304;2022-10-13T15:46:18;22.70;;;6.13;;
1533;SDS011;760;48.822;9.304;2022-10-13T15:48:57;6.10;;;5.03;;
1533;SDS011;760;48.822;9.304;2022-10-13T15:51:25;6.47;;;4.40;;
1533;SDS011;760;48.822;9.304;2022-10-13T15:53:52;7.17;;;5.80;;
1533;SDS011;760;48.822;9.304;2022-10-13T15:56:19;7.80;;;5.53;;
1533;SDS011;760;48.822;9.304;2022-10-13T15:58:44;7.10;;;5.43;;
1533;SDS011;760;48.822;9.304;2022-10-13T16:01:10;6.00;;;4.70;;
1533;SDS011;760;48.822;9.304;2022-10-13T16:03:38;8.37;;;4.50;;
1533;SDS011;760;48.822;9.304;2022-10-13T16:06:05;7.13;;;5.33;;
1533;SDS011;760;48.822;9.304;2022-10-13T16:08:38;6.90;;;5.50;;
1533;SDS011;760;48.822;9.304;2022-10-13T16:11:11;6.53;;;4.77;;
1533;SDS011;760;48.822;9.304;2022-10-13T16:13:39;8.27;;;5.80;;
1533;SDS011;760;48.822;9.304;2022-10-13T16:16:05;10.33;;;6.17;;
1533;SDS011;760;48.822;9.304;2022-10-13T16:18:32;7.17;;;5.47;;
1533;SDS011;760;48.822;9.304;2022-10-13T16:21:06;10.23;;;6.10;;
1533;SDS011;760;48.822;9.304;2022-10-13T16:23:35;8.23;;;5.87;;
1533;SDS011;760;48.822;9.304;2022-10-13T16:26:02;8.17;;;5.73;;
1533;SDS011;760;48.822;9.304;2022-10-13T16:28:28;7.43;;;5.07;;
1533;SDS011;760;48.822;9.304;2022-10-13T16:30:54;7.23;;;4.90;;
1533;SDS011;760;48.822;9.304;2022-10-13T16:33:19;10.20;;;6.23;;
1533;SDS011;760;48.822;9.304;2022-10-13T16:35:46;7.23;;;6.43;;
1533;SDS011;760;48.822;9.304;2022-10-13T16:38:11;6.43;;;5.07;;
1533;SDS011;760;48.822;9.304;2022-10-13T16:40:37;11.67;;;7.50;;
1533;SDS011;760;48.822;9.304;2022-10-13T16:43:03;6.60;;;5.70;;
1533;SDS011;760;48.822;9.304;2022-10-13T16:45:30;7.53;;;6.20;;
1533;SDS011;760;48.822;9.304;2022-10-13T16:47:56;8.80;;;6.67;;
1533;SDS011;760;48.822;9.304;2022-10-13T16:50:21;8.33;;;5.87;;
1533;SDS011;760;48.822;9.304;2022-10-13T16:52:47;10.40;;;7.40;;
1533;SDS011;760;48.822;9.304;2022-10-13T16:55:13;8.70;;;6.50;;
1533;SDS011;760;48.822;9.304;2022-10-13T16:57:39;8.60;;;6.30;;
1533;SDS011;760;48.822;9.304;2022-10-13T17:00:06;6.60;;;5.77;;
1533;SDS011;760;48.822;9.304;2022-10-13T17:02:33;7.43;;;6.13;;
1533;SDS011;760;48.822;9.304;2022-10-13T17:04:59;10.73;;;6.70;;
1533;SDS011;760;48.822;9.304;2022-10-13T17:07:25;8.60;;;5.97;;
1533;SDS011;760;48.822;9.304;2022-10-13T17:09:51;7.17;;;6.47;;
1533;SDS011;760;48.822;9.304;2022-10-13T17:12:16;10.97;;;7.70;;
1533;SDS011;760;48.822;9.304;2022-10-13T17:14:42;7.33;;;6.60;;
1533;SDS011;760;48.822;9.304;2022-10-13T17:17:08;9.27;;;6.47;;
1533;SDS011;760;48.822;9.304;2022-10-13T17:19:33;10.57;;;7.40;;
1533;SDS011;760;48.822;9.304;2022-10-13T17:21:59;10.20;;;7.40;;
1533;SDS011;760;48.822;9.304;2022-10-13T17:24:25;10.00;;;7.13;;
1533;SDS011;760;48.822;9.304;2022-10-13T17:26:50;10.63;;;7.80;;
1533;SDS011;760;48.822;9.304;2022-10-13T17:29:16;9.83;;;6.90;;
1533;SDS011;760;48.822;9.304;2022-10-13T17:31:42;9.97;;;7.47;;
1533;SDS011;760;48.822;9.304;2022-10-13T17:34:07;9.77;;;7.40;;
1533;SDS011;760;48.822;9.304;2022-10-13T17:36:36;9.40;;;8.37;;
1533;SDS011;760;48.822;9.304;2022-10-13T17:39:08;17.63;;;10.80;;
1533;SDS011;760;48.822;9.304;2022-10-13T17:41:35;13.10;;;8.13;;
1533;SDS011;760;48.822;9.304;2022-10-13T17:44:01;11.53;;;7.50;;
1533;SDS011;760;48.822;9.304;2022-10-13T17:46:29;10.10;;;7.73;;
1533;SDS011;760;48.822;9.304;2022-10-13T17:48:56;10.53;;;8.10;;
1533;SDS011;760;48.822;9.304;2022-10-13T17:51:22;7.10;;;6.17;;
1533;SDS011;760;48.822;9.304;2022-10-13T17:53:49;10.20;;;7.33;;
1533;SDS011;760;48.822;9.304;2022-10-13T17:56:17;9.07;;;6.90;;
1533;SDS011;760;48.822;9.304;2022-10-13T17:58:59;9.27;;;6.50;;
1533;SDS011;760;48.822;9.304;2022-10-13T18:01:32;12.07;;;7.77;;
1533;SDS011;760;48.822;9.304;2022-10-13T18:03:59;10.20;;;7.80;;
1533;SDS011;760;48.822;9.304;2022-10-13T18:06:28;12.13;;;6.83;;
1533;SDS011;760;48.822;9.304;2022-10-13T18:08:57;9.30;;;6.60;;
1533;SDS011;760;48.822;9.304;2022-10-13T18:11:23;7.43;;;5.50;;
1533;SDS011;760;48.822;9.304;2022-10-13T18:13:51;8.53;;;7.00;;
1533;SDS011;760;48.822;9.304;2022-10-13T18:16:18;7.80;;;7.00;;
1533;SDS011;760;48.822;9.304;2022-10-13T18:18:48;8.90;;;7.07;;
1533;SDS011;760;48.822;9.304;2022-10-13T18:21:16;10.83;;;7.57;;
1533;SDS011;760;48.822;9.304;2022-10-13T18:23:44;9.70;;;7.07;;
1533;SDS011;760;48.822;9.304;2022-10-13T18:26:11;10.80;;;7.03;;
1533;SDS011;760;48.822;9.304;2022-10-13T18:28:39;9.07;;;6.73;;
1533;SDS011;760;48.822;9.304;2022-10-13T18:31:14;9.30;;;7.93;;
1533;SDS011;760;48.822;9.304;2022-10-13T18:33:52;9.47;;;6.53;;
1533;SDS011;760;48.822;9.304;2022-10-13T18:36:21;11.40;;;6.70;;
1533;SDS011;760;48.822;9.304;2022-10-13T18:39:09;11.47;;;7.03;;
1533;SDS011;760;48.822;9.304;2022-10-13T18:41:36;9.93;;;6.77;;
1533;SDS011;760;48.822;9.304;2022-10-13T18:44:03;9.50;;;7.43;;
1533;SDS011;760;48.822;9.304;2022-10-13T18:46:31;10.50;;;6.93;;
1533;SDS011;760;48.822;9.304;2022-10-13T18:48:57;12.33;;;7.20;;
1533;SDS011;760;48.822;9.304;2022-10-13T18:51:38;8.83;;;5.80;;
1533;SDS011;760;48.822;9.304;2022-10-13T18:54:09;8.80;;;7.50;;
1533;SDS011;760;48.822;9.304;2022-10-13T18:56:34;8.90;;;6.77;;
1533;SDS011;760;48.822;9.304;2022-10-13T18:59:06;7.67;;;6.10;;
1533;SDS011;760;48.822;9.304;2022-10-13T19:01:36;10.23;;;7.90;;
1533;SDS011;760;48.822;9.304;2022-10-13T19:04:03;13.37;;;9.13;;
1533;SDS011;760;48.822;9.304;2022-10-13T19:06:29;9.47;;;8.27;;
1533;SDS011;760;48.822;9.304;2022-10-13T19:08:57;13.93;;;8.00;;
1533;SDS011;760;48.822;9.304;2022-10-13T19:11:24;9.70;;;7.60;;
1533;SDS011;760;48.822;9.304;2022-10-13T19:13:51;11.63;;;8.70;;
1533;SDS011;760;48.822;9.304;2022-10-13T19:16:18;12.60;;;9.33;;
1533;SDS011;760;48.822;9.304;2022-10-13T19:18:46;12.30;;;8.13;;
1533;SDS011;760;48.822;9.304;2022-10-13T19:21:12;13.80;;;8.00;;
1533;SDS011;760;48.822;9.304;2022-10-13T19:23:38;11.07;;;7.90;;
1533;SDS011;760;48.822;9.304;2022-10-13T19:26:09;11.83;;;8.87;;
1533;SDS011;760;48.822;9.304;2022-10-13T19:28:37;9.93;;;7.97;;
1533;SDS011;760;48.822;9.304;2022-10-13T19:31:10;11.80;;;7.37;;
1533;SDS011;760;48.822;9.304;2022-10-13T19:33:39;12.87;;;8.80;;
1533;SDS011;760;48.822;9.304;2022-10-13T19:36:07;9.30;;;8.13;;
1533;SDS011;760;48.822;9.304;2022-10-13T19:38:35;12.20;;;7.93;;
1533;SDS011;760;48.822;9.304;2022-10-13T19:41:05;12.03;;;7.70;;
1533;SDS011;760;48.822;9.304;2022-10-13T19:43:32;9.53;;;7.43;;
1533;SDS011;760;48.822;9.304;2022-10-13T19:45:58;11.17;;;7.37;;
1533;SDS011;760;48.822;9.304;2022-10-13T19:48:24;10.23;;;7.10;;
1533;SDS011;760;48.822;9.304;2022-10-13T19:50:53;10.10;;;7.97;;
1533;SDS011;760;48.822;9.304;2022-10-13T19:53:18;14.93;;;9.80;;
1533;SDS011;760;48.822;9.304;2022-10-13T19:55:45;10.93;;;7.23;;
1533;SDS011;760;48.822;9.304;2022-10-13T19:58:14;10.77;;;7.67;;
1533;SDS011;760;48.822;9.304;2022-10-13T20:00:43;16.13;;;8.50;;
1533;SDS011;760;48.822;9.304;2022-10-13T20:03:10;10.10;;;8.00;;
1533;SDS011;760;48.822;9.304;2022-10-13T20:05:39;11.90;;;8.33;;
1533;SDS011;760;48.822;9.304;2022-10-13T20:08:05;13.20;;;8.30;;
1533;SDS011;760;48.822;9.304;2022-10-13T20:10:33;14.63;;;8.37;;
1533;SDS011;760;48.822;9.304;2022-10-13T20:13:03;10.17;;;8.87;;
1533;SDS011;760;48.822;9.304;2022-10-13T20:15:30;11.30;;;7.77;;
1533;SDS011;760;48.822;9.304;2022-10-13T20:17:56;10.70;;;7.90;;
1533;SDS011;760;48.822;9.304;2022-10-13T20:20:28;15.33;;;7.93;;
1533;SDS011;760;48.822;9.304;2022-10-13T20:22:54;8.40;;;7.17;;
1533;SDS011;760;48.822;9.304;2022-10-13T20:25:20;13.20;;;8.27;;
1533;SDS011;760;48.822;9.304;2022-10-13T20:27:46;14.57;;;9.20;;
1533;SDS011;760;48.822;9.304;2022-10-13T20:30:12;11.60;;;7.83;;
1533;SDS011;760;48.822;9.304;2022-10-13T20:32:38;12.47;;;7.93;;
1533;SDS011;760;48.822;9.304;2022-10-13T20:35:04;9.90;;;8.10;;
1533;SDS011;760;48.822;9.304;2022-10-13T20:37:30;11.77;;;8.47;;
1533;SDS011;760;48.822;9.304;2022-10-13T20:39:58;12.93;;;9.47;;
1533;SDS011;760;48.822;9.304;2022-10-13T20:42:24;13.37;;;9.63;;
1533;SDS011;760;48.822;9.304;2022-10-13T20:44:49;9.30;;;8.13;;
1533;SDS011;760;48.822;9.304;2022-10-13T20:47:15;11.43;;;8.10;;
1533;SDS011;760;48.822;9.304;2022-10-13T20:49:41;11.93;;;9.20;;
1533;SDS011;760;48.822;9.304;2022-10-13T20:52:07;15.63;;;11.13;;
1533;SDS011;760;48.822;9.304;2022-10-13T20:54:33;13.93;;;9.50;;
1533;SDS011;760;48.822;9.304;2022-10-13T20:56:59;14.20;;;9.73;;
1533;SDS011;760;48.822;9.304;2022-10-13T20:59:25;17.27;;;11.53;;
1533;SDS011;760;48.822;9.304;2022-10-13T21:01:54;10.73;;;9.40;;
1533;SDS011;760;48.822;9.304;2022-10-13T21:04:19;13.80;;;8.67;;
1533;SDS011;760;48.822;9.304;2022-10-13T21:06:48;12.10;;;8.63;;
1533;SDS011;760;48.822;9.304;2022-10-13T21:09:13;15.90;;;9.20;;